Time;durP1;ratioP1;P1;durP2;ratioP2;P2;SDS_P1;SDS_P2;PMS_P1;PMS_P2;Temp;Humidity;BMP_temperature;BMP_pressure;BME280_temperature;BME280_humidity;BME280_pressure;Samples;Min_cycle;Max_cycle;Signal;HPM_P1;HPM_P2
2023/03/30 00:00:21;;;;;;;8.10;2.60;;;;;;;13.06;86.35;100442.13;4939966;29;20282;-71
2023/03/30 00:02:49;;;;;;;10.75;2.80;;;;;;;13.07;86.38;100432.88;4960364;28;20070;-71
2023/03/30 00:05:16;;;;;;;5.25;2.60;;;;;;;13.08;85.11;100434.53;4976462;28;20058;-70
2023/03/30 00:07:43;;;;;;;6.75;2.63;;;;;;;13.10;84.87;100432.38;4974775;28;20023;-72
2023/03/30 00:10:10;;;;;;;8.15;2.50;;;;;;;13.11;84.85;100428.59;4959321;28;20030;-68
2023/03/30 00:12:36;;;;;;;5.88;2.28;;;;;;;13.06;85.65;100420.38;4956933;28;20031;-69
2023/03/30 00:15:03;;;;;;;5.30;2.10;;;;;;;12.99;91.38;100411.59;4956447;29;20511;-69
2023/03/30 00:17:29;;;;;;;7.18;2.60;;;;;;;12.94;92.35;100402.28;4956844;29;20049;-72
2023/03/30 00:19:55;;;;;;;5.57;2.53;;;;;;;12.86;95.28;100410.88;4948498;28;20023;-71
2023/03/30 00:22:20;;;;;;;5.90;2.55;;;;;;;12.79;97.25;100412.13;4939301;29;20025;-70
2023/03/30 00:24:45;;;;;;;7.13;2.25;;;;;;;12.77;99.33;100399.63;4956783;29;20371;-70
2023/03/30 00:27:11;;;;;;;7.22;2.65;;;;;;;12.78;97.76;100392.31;4940403;28;20462;-69
2023/03/30 00:29:36;;;;;;;9.10;2.22;;;;;;;12.78;94.57;100397.72;4954182;29;20506;-71
2023/03/30 00:32:02;;;;;;;7.70;2.70;;;;;;;12.76;94.29;100405.31;4939090;29;20363;-71
2023/03/30 00:34:28;;;;;;;5.63;2.60;;;;;;;12.80;89.80;100406.44;4938955;29;20138;-68
2023/03/30 00:36:53;;;;;;;3.60;2.30;;;;;;;12.80;89.50;100381.19;4938845;29;20043;-72
2023/03/30 00:39:21;;;;;;;6.85;2.45;;;;;;;12.76;94.56;100383.59;4956091;28;20023;-70
2023/03/30 00:41:47;;;;;;;3.35;2.30;;;;;;;12.76;94.20;100375.44;4955704;28;20019;-72
2023/03/30 00:44:50;;;;;;;10.68;2.35;;;;;;;12.75;100.00;100373.78;4939286;29;20050;-72
2023/03/30 00:47:16;;;;;;;7.93;2.50;;;;;;;12.67;100.00;100377.78;4970961;28;20023;-71
2023/03/30 00:49:43;;;;;;;7.78;2.40;;;;;;;12.66;93.03;100357.13;4965044;28;20459;-68
2023/03/30 00:52:10;;;;;;;4.10;2.38;;;;;;;12.59;98.02;100368.16;4938543;29;20031;-70
2023/03/30 00:54:37;;;;;;;10.27;2.67;;;;;;;12.59;96.11;100357.31;4955563;28;20023;-70
2023/03/30 00:57:02;;;;;;;8.70;2.83;;;;;;;12.59;96.01;100346.44;4954565;28;20495;-72
2023/03/30 00:59:28;;;;;;;7.43;2.90;;;;;;;12.58;96.79;100344.81;4938142;29;20170;-72
2023/03/30 01:01:54;;;;;;;5.88;2.50;;;;;;;12.61;94.53;100356.25;4954853;28;20026;-72
2023/03/30 01:04:20;;;;;;;5.40;2.50;;;;;;;12.56;96.43;100354.25;4938716;29;20058;-71
2023/03/30 01:06:46;;;;;;;8.60;2.78;;;;;;;12.57;96.00;100354.00;4972077;28;20073;-71
2023/03/30 01:09:14;;;;;;;8.77;2.63;;;;;;;12.58;94.19;100336.66;4957665;28;20045;-73
2023/03/30 01:11:41;;;;;;;5.30;2.70;;;;;;;12.54;100.00;100337.41;4957794;28;20339;-70
2023/03/30 01:14:10;;;;;;;5.88;2.40;;;;;;;12.46;100.00;100352.22;4967435;28;20023;-72
2023/03/30 01:17:00;;;;;;;6.07;2.22;;;;;;;12.52;96.59;100351.22;4955266;28;20074;-72
2023/03/30 01:20:07;;;;;;;8.38;2.60;;;;;;;12.52;100.00;100351.22;4938496;29;20207;-70
2023/03/30 01:23:11;;;;;;;6.30;2.50;;;;;;;12.52;99.92;100362.09;4955716;29;20023;-72
2023/03/30 01:26:15;;;;;;;8.30;2.67;;;;;;;12.52;98.73;100351.22;4943290;28;20023;-70
2023/03/30 01:28:46;;;;;;;6.13;2.38;;;;;;;12.51;97.37;100354.19;4974926;28;20026;-71
2023/03/30 01:31:14;;;;;;;6.97;2.70;;;;;;;12.47;99.21;100355.75;4974612;28;20031;-71
2023/03/30 01:34:12;;;;;;;7.90;2.65;;;;;;;12.50;99.98;100347.97;4973665;28;20070;-68
2023/03/30 01:36:56;;;;;;;7.13;2.40;;;;;;;12.62;96.22;100342.44;4963183;28;20394;-69
2023/03/30 01:39:34;;;;;;;6.05;2.60;;;;;;;12.72;93.65;100336.28;4938166;29;20159;-72
2023/03/30 01:42:09;;;;;;;6.60;2.60;;;;;;;12.90;90.13;100341.41;4937449;29;20027;-69
2023/03/30 01:45:13;;;;;;;8.10;2.47;;;;;;;12.98;90.01;100329.28;4954845;28;20035;-71
2023/03/30 01:47:54;;;;;;;8.73;2.55;;;;;;;13.03;88.96;100329.34;4941631;29;20046;-69
2023/03/30 01:50:41;;;;;;;5.13;2.35;;;;;;;13.06;89.00;100322.59;4938058;29;20035;-71
2023/03/30 01:53:20;;;;;;;3.80;2.05;;;;;;;13.08;87.63;100328.59;4937674;29;20082;-69
2023/03/30 01:56:18;;;;;;;3.75;1.95;;;;;;;13.10;88.14;100345.44;4954501;28;20110;-72
2023/03/30 01:58:47;;;;;;;5.95;2.17;;;;;;;13.09;86.74;100360.13;4934965;29;20122;-71
2023/03/30 02:01:16;;;;;;;9.40;2.40;;;;;;;13.08;87.11;100347.59;4951126;29;20031;-69
2023/03/30 02:03:48;;;;;;;9.60;2.50;;;;;;;13.15;85.16;100348.22;4954472;28;20137;-73
2023/03/30 02:06:19;;;;;;;;;;;;;;;13.17;90.20;100346.06;4964316;28;20045;-71
2023/03/30 02:08:48;;;;;;;7.70;2.53;;;;;;;13.13;85.40;100353.06;4974160;28;19906;-69
2023/03/30 02:11:14;;;;;;;5.28;1.92;;;;;;;13.09;86.31;100354.69;4972580;28;20462;-72
2023/03/30 02:13:42;;;;;;;8.43;2.25;;;;;;;13.07;87.28;100356.81;4954322;28;20052;-71
2023/03/30 02:16:23;;;;;;;6.45;2.40;;;;;;;13.05;88.52;100348.09;4956058;28;20167;-69
2023/03/30 02:18:48;;;;;;;5.40;2.33;;;;;;;13.04;88.15;100346.44;4954715;29;20700;-73
2023/03/30 02:21:15;;;;;;;7.25;2.50;;;;;;;13.03;88.11;100339.38;4937284;29;20027;-70
2023/03/30 02:23:45;;;;;;;7.32;2.35;;;;;;;13.00;89.10;100340.72;4936689;28;20031;-70
2023/03/30 02:26:11;;;;;;;6.38;2.28;;;;;;;12.99;89.77;100332.81;4949517;28;20038;-69
2023/03/30 02:28:38;;;;;;;7.50;2.30;;;;;;;12.97;89.25;100338.50;4944149;29;20097;-71
2023/03/30 02:31:08;;;;;;;8.02;2.60;;;;;;;12.97;89.64;100340.38;4954096;29;20042;-69
2023/03/30 02:33:55;;;;;;;5.35;2.20;;;;;;;12.97;91.45;100343.94;4954125;28;20027;-71
2023/03/30 02:36:22;;;;;;;4.90;2.15;;;;;;;12.96;90.80;100338.75;4953889;28;20035;-71
2023/03/30 02:39:00;;;;;;;6.95;2.33;;;;;;;12.99;90.35;100335.53;4937288;29;20035;-72
2023/03/30 02:41:49;;;;;;;5.65;2.40;;;;;;;12.99;91.52;100338.25;4954571;29;20031;-68
2023/03/30 02:44:14;;;;;;;5.93;2.40;;;;;;;13.00;90.42;100338.00;4954394;29;20038;-69
2023/03/30 02:47:12;;;;;;;6.88;2.33;;;;;;;13.05;88.85;100337.25;4944441;29;20031;-72
2023/03/30 02:49:52;;;;;;;8.25;2.38;;;;;;;13.03;90.30;100339.38;4930763;29;20500;-70
2023/03/30 02:52:52;;;;;;;6.32;2.30;;;;;;;13.05;90.18;100343.47;4936778;29;20379;-73
2023/03/30 02:55:35;;;;;;;7.57;2.30;;;;;;;13.05;89.83;100337.25;4954196;28;20059;-73
2023/03/30 02:58:30;;;;;;;9.50;2.47;;;;;;;13.08;91.17;100331.31;4936744;29;20058;-70
2023/03/30 03:01:18;;;;;;;5.97;2.28;;;;;;;13.11;87.74;100336.22;4934807;29;20455;-72
2023/03/30 03:03:47;;;;;;;8.05;2.78;;;;;;;13.12;87.81;100327.81;4953828;28;20121;-70
2023/03/30 03:06:14;;;;;;;5.57;2.03;;;;;;;13.11;88.79;100325.34;4960181;28;20027;-70
2023/03/30 03:08:43;;;;;;;6.28;2.08;;;;;;;13.12;88.06;100318.84;4973790;28;20030;-73
2023/03/30 03:11:09;;;;;;;6.70;2.30;;;;;;;13.12;88.91;100322.38;4972027;28;20026;-73
2023/03/30 03:13:36;;;;;;;7.13;2.08;;;;;;;13.12;88.34;100333.25;4939987;29;20062;-70
2023/03/30 03:16:06;;;;;;;5.95;1.95;;;;;;;13.11;88.29;100325.34;4941551;28;20038;-70
2023/03/30 03:18:35;;;;;;;7.18;2.35;;;;;;;13.12;89.20;100321.56;4973864;28;20035;-74
2023/03/30 03:21:01;;;;;;;5.63;2.13;;;;;;;13.14;87.98;100330.28;4977075;28;20028;-72
2023/03/30 03:23:26;;;;;;;6.43;2.22;;;;;;;13.14;88.26;100319.41;4962968;28;20118;-72
2023/03/30 03:25:51;;;;;;;5.97;2.00;;;;;;;13.11;88.53;100315.31;4940708;28;20419;-69
2023/03/30 03:28:17;;;;;;;6.90;2.22;;;;;;;13.12;87.43;100313.44;4957319;28;20430;-70
2023/03/30 03:30:42;;;;;;;4.68;1.80;;;;;;;13.12;87.73;100316.94;4940638;29;20057;-69
2023/03/30 03:33:07;;;;;;;5.22;2.40;;;;;;;13.10;88.45;100319.13;4950597;28;20470;-69
2023/03/30 03:35:33;;;;;;;5.07;2.20;;;;;;;13.10;87.41;100318.28;4975327;28;20097;-71
2023/03/30 03:37:58;;;;;;;7.63;2.13;;;;;;;13.12;87.18;100316.13;4975616;28;20370;-70
2023/03/30 03:40:24;;;;;;;6.68;2.38;;;;;;;13.16;84.70;100311.81;4976789;28;20418;-69
2023/03/30 03:42:49;;;;;;;7.68;2.22;;;;;;;13.17;85.66;100318.91;4950527;29;20027;-69
2023/03/30 03:45:15;;;;;;;6.93;2.25;;;;;;;13.17;84.18;100308.03;4957197;29;20379;-69
2023/03/30 03:47:40;;;;;;;6.20;1.90;;;;;;;13.16;85.85;100311.81;4957308;28;20027;-69
2023/03/30 03:50:08;;;;;;;6.45;2.30;;;;;;;13.16;84.99;100309.09;4959163;28;20118;-68
2023/03/30 03:52:35;;;;;;;6.00;2.00;;;;;;;13.19;82.43;100308.59;4954719;29;20440;-68
2023/03/30 03:55:01;;;;;;;6.72;2.10;;;;;;;13.22;82.28;100305.34;4971810;28;20035;-70
2023/03/30 03:57:26;;;;;;;6.28;2.45;;;;;;;13.20;82.26;100304.81;4958498;28;20023;-69
2023/03/30 03:59:53;;;;;;;10.05;2.13;;;;;;;13.23;81.25;100301.56;4959048;28;20655;-71
2023/03/30 04:02:19;;;;;;;4.70;2.08;;;;;;;13.22;81.42;100308.06;4951692;29;20027;-71
2023/03/30 04:04:44;;;;;;;5.88;2.22;;;;;;;13.20;82.22;100307.53;4939907;29;20031;-72
2023/03/30 04:07:10;;;;;;;6.65;2.03;;;;;;;13.24;80.86;100305.94;4952236;28;20418;-72
2023/03/30 04:09:36;;;;;;;6.15;2.08;;;;;;;13.23;81.47;100296.13;4957105;28;20039;-69
2023/03/30 04:12:01;;;;;;;5.50;1.98;;;;;;;13.19;82.46;100299.63;4975794;28;20375;-72
2023/03/30 04:14:26;;;;;;;5.45;2.17;;;;;;;13.19;82.15;100300.44;4975967;28;20034;-71
2023/03/30 04:16:51;;;;;;;6.15;2.20;;;;;;;13.13;85.27;100293.31;4976291;28;20370;-72
2023/03/30 04:19:17;;;;;;;7.30;2.30;;;;;;;13.12;84.82;100283.53;4954075;28;20475;-70
2023/03/30 04:21:45;;;;;;;7.05;2.05;;;;;;;13.06;85.43;100276.41;4939510;29;20066;-73
2023/03/30 04:24:12;;;;;;;11.13;2.03;;;;;;;13.05;85.88;100277.47;4956556;29;20027;-72
2023/03/30 04:26:37;;;;;;;7.60;2.40;;;;;;;13.07;85.58;100286.19;4956459;29;20031;-71
2023/03/30 04:29:05;;;;;;;4.80;2.13;;;;;;;13.03;87.34;100285.88;4942469;28;20366;-70
2023/03/30 04:31:33;;;;;;;5.18;1.90;;;;;;;13.02;88.47;100294.28;4938992;29;20394;-70
2023/03/30 04:34:01;;;;;;;7.03;2.05;;;;;;;12.94;90.75;100280.09;4956647;29;20086;-69
2023/03/30 04:36:27;;;;;;;7.63;2.42;;;;;;;12.93;91.08;100273.00;4938978;29;20043;-70
2023/03/30 04:38:59;;;;;;;8.07;2.10;;;;;;;12.88;91.47;100272.97;4964636;28;20046;-71
2023/03/30 04:41:28;;;;;;;8.95;2.40;;;;;;;12.84;92.61;100271.81;4939343;28;20031;-74
2023/03/30 04:43:54;;;;;;;7.22;2.33;;;;;;;12.82;93.26;100262.28;4938995;29;20031;-72
2023/03/30 04:46:20;;;;;;;6.93;2.22;;;;;;;12.79;91.40;100260.06;4938983;29;20027;-73
2023/03/30 04:48:45;;;;;;;6.43;2.40;;;;;;;12.78;91.89;100264.69;4942903;29;20482;-70
2023/03/30 04:51:10;;;;;;;7.28;2.30;;;;;;;12.74;92.39;100263.56;4955253;28;20038;-70
2023/03/30 04:53:36;;;;;;;6.38;2.38;;;;;;;12.72;92.85;100254.84;4939036;29;20020;-72
2023/03/30 04:56:01;;;;;;;8.13;2.33;;;;;;;12.72;93.04;100263.00;4956021;29;20019;-71
2023/03/30 04:58:26;;;;;;;9.40;2.40;;;;;;;12.76;90.79;100272.28;4938457;29;20031;-68
2023/03/30 05:00:52;;;;;;;8.55;2.20;;;;;;;12.72;92.74;100271.13;4953126;28;20023;-73
2023/03/30 05:03:18;;;;;;;8.57;2.15;;;;;;;12.70;93.30;100274.09;4938671;29;20034;-69
2023/03/30 05:05:43;;;;;;;6.43;2.53;;;;;;;12.69;95.85;100268.94;4938823;29;20031;-70
2023/03/30 05:08:08;;;;;;;10.00;2.25;;;;;;;12.64;100.00;100288.69;4956179;28;20034;-68
2023/03/30 05:10:34;;;;;;;4.25;2.03;;;;;;;12.58;100.00;100316.84;4965084;28;20035;-70
2023/03/30 05:12:59;;;;;;;9.73;2.60;;;;;;;12.47;100.00;100318.59;4938656;29;20117;-71
2023/03/30 05:15:25;;;;;;;10.38;2.78;;;;;;;12.32;100.00;100315.66;4938768;29;20066;-72
2023/03/30 05:17:50;;;;;;;10.32;3.20;;;;;;;12.14;100.00;100312.16;4938602;29;20023;-72
2023/03/30 05:20:17;;;;;;;6.97;3.03;;;;;;;12.08;100.00;100318.59;4937384;29;20027;-72
2023/03/30 05:22:42;;;;;;;6.32;3.30;;;;;;;11.98;100.00;100323.84;4938399;29;20031;-72
2023/03/30 05:25:08;;;;;;;6.03;3.33;;;;;;;11.88;100.00;100314.47;4955184;29;20073;-69
2023/03/30 05:27:34;;;;;;;9.15;3.38;;;;;;;11.77;100.00;100318.06;4955663;29;20023;-70
2023/03/30 05:30:00;;;;;;;11.30;3.45;;;;;;;11.69;100.00;100321.19;4949783;28;20030;-67
2023/03/30 05:32:25;;;;;;;7.07;3.20;;;;;;;11.67;100.00;100320.59;4954895;28;20035;-69
2023/03/30 05:34:50;;;;;;;10.30;3.55;;;;;;;11.55;100.00;100325.25;4938184;29;20031;-72
2023/03/30 05:37:16;;;;;;;7.28;3.20;;;;;;;11.48;100.00;100326.25;4955029;29;20031;-70
2023/03/30 05:39:41;;;;;;;10.60;3.40;;;;;;;11.41;100.00;100328.28;4967409;28;20443;-71
2023/03/30 05:42:08;;;;;;;10.80;3.22;;;;;;;11.37;100.00;100340.69;4973712;28;20041;-70
2023/03/30 05:44:34;;;;;;;10.90;3.67;;;;;;;11.33;100.00;100336.81;4957244;28;20173;-72
2023/03/30 05:46:59;;;;;;;8.57;3.33;;;;;;;11.23;100.00;100332.03;4957199;28;20121;-70
2023/03/30 05:49:25;;;;;;;8.38;3.17;;;;;;;11.21;100.00;100327.91;4973470;28;20038;-68
2023/03/30 05:51:52;;;;;;;9.13;3.22;;;;;;;11.14;100.00;100326.19;4938387;29;20086;-69
2023/03/30 05:54:18;;;;;;;8.95;2.90;;;;;;;11.12;100.00;100322.88;4937729;29;20055;-72
2023/03/30 05:56:43;;;;;;;9.25;2.80;;;;;;;11.08;100.00;100324.44;4953746;29;20125;-69
2023/03/30 05:59:09;;;;;;;10.13;3.50;;;;;;;11.09;100.00;100334.19;4954379;28;20031;-72
2023/03/30 06:01:35;;;;;;;12.07;3.40;;;;;;;11.02;100.00;100346.22;4935173;29;20031;-70
2023/03/30 06:04:01;;;;;;;8.77;3.63;;;;;;;10.98;100.00;100341.28;4937729;29;20376;-68
2023/03/30 06:06:27;;;;;;;11.68;4.20;;;;;;;10.98;100.00;100340.47;4937180;29;20090;-71
2023/03/30 06:08:52;;;;;;;10.77;3.78;;;;;;;10.95;100.00;100343.66;4941141;29;20098;-73
2023/03/30 06:11:18;;;;;;;9.07;3.40;;;;;;;10.94;100.00;100344.72;4936584;29;20082;-69
2023/03/30 06:13:43;;;;;;;10.15;3.08;;;;;;;10.94;100.00;100350.13;4954907;29;20027;-70
2023/03/30 06:16:09;;;;;;;8.98;3.15;;;;;;;10.97;100.00;100347.75;4954747;29;20042;-68
2023/03/30 06:18:34;;;;;;;10.93;3.47;;;;;;;10.96;100.00;100351.56;4941388;28;20081;-70
2023/03/30 06:21:01;;;;;;;9.13;3.30;;;;;;;11.03;100.00;100348.69;4972377;28;20425;-72
2023/03/30 06:23:27;;;;;;;13.80;3.72;;;;;;;11.00;100.00;100349.16;4973835;28;20470;-71
2023/03/30 06:25:56;;;;;;;12.13;3.60;;;;;;;11.04;100.00;100363.88;4956661;28;20451;-70
2023/03/30 06:28:23;;;;;;;11.18;3.30;;;;;;;11.05;100.00;100354.72;4953041;28;20042;-73
2023/03/30 06:30:48;;;;;;;8.05;3.20;;;;;;;11.02;100.00;100367.88;4953527;28;20098;-72
2023/03/30 06:33:17;;;;;;;14.70;3.53;;;;;;;10.98;100.00;100364.84;4953042;29;20451;-71
2023/03/30 06:35:47;;;;;;;9.05;2.90;;;;;;;10.94;100.00;100364.47;4937153;29;20146;-70
2023/03/30 06:38:13;;;;;;;14.43;4.15;;;;;;;10.92;100.00;100368.50;4954661;29;20037;-71
2023/03/30 06:40:39;;;;;;;9.30;3.22;;;;;;;10.86;100.00;100358.66;4960105;28;20031;-74
2023/03/30 06:43:05;;;;;;;14.20;3.63;;;;;;;10.89;100.00;100377.94;4958730;28;20030;-70
2023/03/30 06:45:31;;;;;;;13.35;3.45;;;;;;;10.89;100.00;100367.09;4953684;28;20467;-70
2023/03/30 06:47:57;;;;;;;17.17;3.55;;;;;;;10.89;100.00;100369.00;4954270;29;20057;-78
2023/03/30 06:50:22;;;;;;;10.48;3.63;;;;;;;10.90;100.00;100366.03;4944704;28;20556;-73
2023/03/30 06:52:47;;;;;;;10.82;3.53;;;;;;;10.93;100.00;100367.44;4954910;28;20024;-71
2023/03/30 06:55:13;;;;;;;10.93;3.28;;;;;;;10.96;100.00;100365.09;4957535;29;20038;-75
2023/03/30 06:57:38;;;;;;;11.75;3.05;;;;;;;10.95;100.00;100359.91;4965609;28;20089;-72
2023/03/30 07:00:10;;;;;;;11.75;3.10;;;;;;;11.01;100.00;100369.78;4954576;29;20039;-75
2023/03/30 07:02:35;;;;;;;10.80;2.70;;;;;;;11.04;100.00;100368.50;4948246;28;20126;-73
2023/03/30 07:05:01;;;;;;;11.63;2.92;;;;;;;11.07;100.00;100378.84;4959683;28;20113;-73
2023/03/30 07:07:26;;;;;;;10.52;2.85;;;;;;;11.09;100.00;100374.00;4976606;28;20165;-72
2023/03/30 07:09:52;;;;;;;11.02;3.20;;;;;;;11.12;100.00;100376.22;4975454;28;20030;-72
2023/03/30 07:12:17;;;;;;;9.82;3.00;;;;;;;11.12;100.00;100371.63;4960743;28;20113;-72
2023/03/30 07:14:44;;;;;;;9.45;2.75;;;;;;;11.15;100.00;100370.31;4940330;29;20052;-74
2023/03/30 07:17:10;;;;;;;10.55;3.35;;;;;;;11.15;100.00;100381.97;4940440;29;20501;-74
2023/03/30 07:19:36;;;;;;;13.27;3.25;;;;;;;11.23;100.00;100374.53;4956760;28;20117;-72
2023/03/30 07:22:02;;;;;;;10.30;2.80;;;;;;;11.30;100.00;100383.34;4969197;28;20555;-74
2023/03/30 07:24:30;;;;;;;9.10;2.80;;;;;;;11.31;100.00;100382.28;4976793;28;20039;-73
2023/03/30 07:26:56;;;;;;;12.10;2.80;;;;;;;11.41;100.00;100382.47;4960037;28;20117;-71
2023/03/30 07:29:21;;;;;;;10.75;3.28;;;;;;;11.47;100.00;100380.69;4951528;29;20488;-72
2023/03/30 07:31:46;;;;;;;15.73;3.15;;;;;;;11.55;100.00;100384.88;4961217;28;20062;-70
2023/03/30 07:34:12;;;;;;;10.57;2.50;;;;;;;11.62;100.00;100382.84;4958898;28;20023;-70
2023/03/30 07:36:37;;;;;;;13.52;3.30;;;;;;;11.62;100.00;100386.38;4956931;28;20118;-69
2023/03/30 07:39:03;;;;;;;15.48;3.50;;;;;;;11.66;100.00;100384.81;4939723;29;20034;-72
2023/03/30 07:41:28;;;;;;;15.25;3.10;;;;;;;11.69;100.00;100386.25;4964183;28;20023;-72
2023/03/30 07:43:53;;;;;;;10.75;3.05;;;;;;;11.73;100.00;100400.97;4960006;28;20042;-72
2023/03/30 07:46:19;;;;;;;15.45;3.25;;;;;;;11.74;100.00;100415.31;4952066;28;20031;-74
2023/03/30 07:48:44;;;;;;;11.98;3.40;;;;;;;11.77;100.00;100409.41;4938660;28;20443;-75
2023/03/30 07:51:12;;;;;;;12.35;3.15;;;;;;;11.80;100.00;100415.16;4943227;28;20039;-72
2023/03/30 07:53:38;;;;;;;14.30;3.60;;;;;;;11.81;100.00;100408.69;4957270;28;20481;-70
2023/03/30 07:56:04;;;;;;;14.52;3.33;;;;;;;11.83;100.00;100411.94;4976496;28;20030;-71
2023/03/30 07:58:30;;;;;;;13.48;3.40;;;;;;;11.86;100.00;100411.47;4976076;28;20033;-72
2023/03/30 08:00:55;;;;;;;15.35;3.55;;;;;;;11.95;100.00;100427.38;4956617;28;20027;-73
2023/03/30 08:03:21;;;;;;;14.55;3.47;;;;;;;11.97;100.00;100427.94;4976294;28;20031;-71
2023/03/30 08:06:16;;;;;;;13.85;3.10;;;;;;;12.07;100.00;100430.03;4975448;28;20462;-73
2023/03/30 08:08:42;;;;;;;12.35;2.90;;;;;;;12.06;100.00;100429.19;4963419;28;20037;-72
2023/03/30 08:11:09;;;;;;;14.25;3.65;;;;;;;12.07;100.00;100428.13;4976165;28;20077;-71
2023/03/30 08:13:36;;;;;;;15.38;3.33;;;;;;;12.12;100.00;100441.78;4958743;28;20498;-73
2023/03/30 08:16:01;;;;;;;12.85;3.38;;;;;;;12.17;100.00;100441.88;4976273;28;20471;-72
2023/03/30 08:18:27;;;;;;;14.40;3.70;;;;;;;12.19;100.00;100436.19;4975773;28;20027;-71
2023/03/30 08:20:53;;;;;;;13.38;3.35;;;;;;;12.22;100.00;100443.84;4975904;28;20041;-71
2023/03/30 08:23:19;;;;;;;15.60;3.85;;;;;;;12.25;100.00;100450.69;4975983;28;20073;-71
2023/03/30 08:25:46;;;;;;;14.15;3.85;;;;;;;12.27;100.00;100448.53;4958756;28;20439;-73
2023/03/30 08:28:12;;;;;;;17.90;3.30;;;;;;;12.28;100.00;100448.28;4976369;28;20074;-71
2023/03/30 08:30:37;;;;;;;17.45;3.83;;;;;;;12.25;100.00;100446.06;4975554;28;20062;-72
2023/03/30 08:33:02;;;;;;;15.88;3.70;;;;;;;12.27;100.00;100457.47;4976104;28;20386;-71
2023/03/30 08:35:28;;;;;;;16.08;3.25;;;;;;;12.30;100.00;100453.47;4974239;28;20537;-71
2023/03/30 08:37:54;;;;;;;18.05;4.07;;;;;;;12.36;100.00;100449.75;4974715;28;20034;-73
2023/03/30 08:40:20;;;;;;;16.70;3.65;;;;;;;12.33;100.00;100439.41;4975611;28;20033;-73
2023/03/30 08:43:02;;;;;;;13.50;3.35;;;;;;;12.40;100.00;100440.06;4958537;28;20105;-75
2023/03/30 08:45:40;;;;;;;19.90;4.15;;;;;;;12.46;100.00;100446.41;4958197;28;20030;-72
2023/03/30 08:48:27;;;;;;;17.30;3.67;;;;;;;12.51;100.00;100450.00;4975806;28;20034;-73
2023/03/30 08:51:04;;;;;;;15.07;3.53;;;;;;;12.55;100.00;100442.19;4976145;28;20039;-75
2023/03/30 08:53:32;;;;;;;21.88;4.63;;;;;;;12.51;100.00;100454.63;4975449;28;20102;-75
2023/03/30 08:56:10;;;;;;;22.27;4.43;;;;;;;12.54;100.00;100457.66;4957926;28;20031;-72
2023/03/30 08:58:38;;;;;;;17.70;3.90;;;;;;;12.58;100.00;100452.56;4975425;28;20028;-73
2023/03/30 09:01:17;;;;;;;16.17;3.70;;;;;;;12.64;100.00;100457.00;4955220;28;20538;-73
2023/03/30 09:04:26;;;;;;;18.00;3.72;;;;;;;12.73;100.00;100454.69;4957423;28;20431;-71
2023/03/30 09:07:07;;;;;;;17.33;3.95;;;;;;;12.80;100.00;100455.31;4957968;28;20093;-74
2023/03/30 09:09:41;;;;;;;19.98;3.30;;;;;;;12.85;100.00;100455.41;4957533;28;20042;-71
2023/03/30 09:12:37;;;;;;;17.00;3.80;;;;;;;12.96;100.00;100471.84;4975282;28;20065;-72
2023/03/30 09:15:14;;;;;;;19.85;4.00;;;;;;;12.97;100.00;100481.63;4957866;28;20027;-73
2023/03/30 09:17:46;;;;;;;16.63;3.85;;;;;;;12.98;100.00;100475.13;4973710;28;20025;-75
2023/03/30 09:20:21;;;;;;;14.77;3.63;;;;;;;12.91;95.05;100476.13;4975058;28;20034;-72
2023/03/30 09:22:48;;;;;;;17.10;3.90;;;;;;;12.85;96.95;100485.28;4957710;28;20026;-75
2023/03/30 09:25:17;;;;;;;18.67;4.00;;;;;;;12.82;97.04;100490.34;4957952;28;20378;-72
2023/03/30 09:28:02;;;;;;;20.25;3.72;;;;;;;12.76;100.00;100492.19;4974579;28;20027;-74
2023/03/30 09:30:40;;;;;;;18.52;4.35;;;;;;;12.77;100.00;100501.97;4974422;28;20041;-73
2023/03/30 09:33:11;;;;;;;18.33;4.50;;;;;;;12.82;100.00;100502.06;4957498;28;20027;-73
2023/03/30 09:35:42;;;;;;;15.98;4.40;;;;;;;12.98;99.98;100489.50;4974846;28;20047;-72
2023/03/30 09:38:11;;;;;;;19.73;4.38;;;;;;;13.05;94.63;100494.78;4974946;28;20034;-73
2023/03/30 09:40:49;;;;;;;18.80;4.65;;;;;;;13.12;99.43;100496.25;4974583;28;20025;-75
2023/03/30 09:43:40;;;;;;;15.02;4.05;;;;;;;13.22;89.98;100508.31;4973532;28;20483;-76
2023/03/30 09:46:06;;;;;;;16.35;3.90;;;;;;;13.21;88.70;100487.66;4974690;28;20027;-73
2023/03/30 09:48:39;;;;;;;19.95;4.60;;;;;;;13.26;88.58;100499.41;4974409;28;20038;-75
2023/03/30 09:51:26;;;;;;;18.70;4.75;;;;;;;13.36;88.57;100503.38;4974573;28;20023;-73
2023/03/30 09:54:13;;;;;;;19.65;4.70;;;;;;;13.35;92.71;100515.34;4974349;28;20023;-75
2023/03/30 09:56:45;;;;;;;22.02;4.65;;;;;;;13.34;92.29;100511.78;4974472;28;20074;-73
2023/03/30 09:59:30;;;;;;;17.48;3.97;;;;;;;13.37;90.88;100513.97;4974462;28;20023;-73
2023/03/30 10:02:16;;;;;;;18.80;4.15;;;;;;;13.44;88.34;100513.81;4971699;28;20113;-72
2023/03/30 10:04:57;;;;;;;18.23;4.25;;;;;;;13.38;90.21;100522.97;4973808;28;20522;-73
2023/03/30 10:07:29;;;;;;;25.35;5.32;;;;;;;13.38;82.11;100526.50;4974271;28;20101;-73
2023/03/30 10:09:57;;;;;;;22.67;4.60;;;;;;;13.27;82.70;100516.53;4974343;28;20494;-72
2023/03/30 10:12:24;;;;;;;18.77;4.45;;;;;;;13.23;82.79;100505.34;4956809;28;20038;-72
2023/03/30 10:15:01;;;;;;;18.05;4.40;;;;;;;13.27;84.56;100522.81;4974208;28;20035;-75
2023/03/30 10:17:27;;;;;;;21.20;4.75;;;;;;;13.25;88.30;100516.78;4956559;28;20332;-74
2023/03/30 10:20:12;;;;;;;27.27;4.70;;;;;;;13.35;91.61;100516.16;4956699;28;20029;-74
2023/03/30 10:22:48;;;;;;;22.23;5.28;;;;;;;13.49;94.08;100527.47;4974139;28;20038;-75
2023/03/30 10:25:20;;;;;;;19.35;4.85;;;;;;;13.54;90.48;100529.41;4956707;28;20477;-72
2023/03/30 10:27:48;;;;;;;21.25;4.90;;;;;;;13.53;90.94;100531.31;4973679;28;20027;-74
2023/03/30 10:30:23;;;;;;;18.88;5.03;;;;;;;13.53;91.35;100527.78;4973795;28;20132;-74
2023/03/30 10:32:50;;;;;;;21.80;5.00;;;;;;;13.56;88.63;100528.09;4974042;28;20027;-73
2023/03/30 10:35:34;;;;;;;20.05;4.55;;;;;;;13.59;90.67;100541.19;4956261;28;20125;-72
2023/03/30 10:38:01;;;;;;;23.60;4.78;;;;;;;13.64;85.88;100527.66;4973643;28;20097;-72
2023/03/30 10:40:33;;;;;;;21.77;4.35;;;;;;;13.71;84.73;100540.22;4956265;28;20029;-73
2023/03/30 10:43:00;;;;;;;15.25;3.92;;;;;;;13.78;82.04;100522.66;4972531;28;20034;-71
2023/03/30 10:45:50;;;;;;;16.38;4.20;;;;;;;13.82;79.11;100522.97;4956431;28;20027;-74
2023/03/30 10:48:27;;;;;;;17.45;3.75;;;;;;;13.81;77.58;100522.16;4973699;28;20027;-74
2023/03/30 10:51:23;;;;;;;18.63;4.28;;;;;;;13.81;78.51;100526.75;4974131;28;20117;-74
2023/03/30 10:53:57;;;;;;;18.05;4.13;;;;;;;13.90;74.92;100536.09;4973481;28;20023;-69
2023/03/30 10:56:45;;;;;;;20.02;4.47;;;;;;;14.03;77.15;100526.72;4956225;28;20027;-73
2023/03/30 10:59:38;;;;;;;15.25;4.40;;;;;;;14.15;77.31;100529.31;4973671;28;20518;-74
2023/03/30 11:02:20;;;;;;;19.48;4.20;;;;;;;14.11;75.11;100528.16;4971323;28;20082;-72
2023/03/30 11:05:11;;;;;;;21.00;4.47;;;;;;;14.13;78.51;100534.16;4973240;28;20035;-74
2023/03/30 11:08:00;;;;;;;15.75;3.85;;;;;;;14.03;74.93;100536.81;4945653;29;20379;-74
2023/03/30 11:10:32;;;;;;;17.05;4.15;;;;;;;13.97;77.22;100528.56;4972416;28;20046;-74
2023/03/30 11:12:59;;;;;;;16.10;3.88;;;;;;;14.03;76.35;100526.72;4956138;28;20094;-74
2023/03/30 11:15:39;;;;;;;18.38;4.15;;;;;;;14.13;76.85;100526.00;4973138;28;20038;-70
2023/03/30 11:18:13;;;;;;;18.02;4.25;;;;;;;14.28;75.52;100526.19;4973339;28;20034;-75
2023/03/30 11:20:46;;;;;;;16.52;4.20;;;;;;;14.34;75.11;100521.56;4945504;29;20027;-73
2023/03/30 11:23:17;;;;;;;15.90;4.15;;;;;;;14.36;73.92;100524.88;4970719;28;20470;-74
2023/03/30 11:26:05;;;;;;;18.77;4.22;;;;;;;14.33;75.61;100519.97;4955854;28;20029;-72
2023/03/30 11:28:52;;;;;;;15.45;4.30;;;;;;;14.35;75.79;100526.75;4955774;28;20493;-73
2023/03/30 11:31:25;;;;;;;18.85;4.38;;;;;;;14.22;74.13;100529.94;4973116;28;20471;-73
2023/03/30 11:34:09;;;;;;;15.50;4.32;;;;;;;14.17;74.80;100536.13;4973408;28;20034;-73
2023/03/30 11:36:54;;;;;;;16.17;4.05;;;;;;;14.13;74.72;100528.72;4940590;28;20549;-76